sensor_id;sensor_type;location;lat;lon;timestamp;P1;durP1;ratioP1;P2;durP2;ratioP2
43606;SDS011;29197;44.788;10.366;2024-02-26T00:01:17;3.22;;;1.70;;
43606;SDS011;29197;44.788;10.366;2024-02-26T00:04:06;3.33;;;2.10;;
43606;SDS011;29197;44.788;10.366;2024-02-26T00:06:55;3.10;;;1.93;;
43606;SDS011;29197;44.788;10.366;2024-02-26T00:09:46;2.73;;;2.00;;
43606;SDS011;29197;44.788;10.366;2024-02-26T00:12:35;3.97;;;2.20;;
43606;SDS011;29197;44.788;10.366;2024-02-26T00:15:26;3.42;;;2.15;;
43606;SDS011;29197;44.788;10.366;2024-02-26T00:18:15;2.47;;;1.88;;
43606;SDS011;29197;44.788;10.366;2024-02-26T00:21:04;2.35;;;1.73;;
43606;SDS011;29197;44.788;10.366;2024-02-26T00:23:53;2.03;;;1.65;;
43606;SDS011;29197;44.788;10.366;2024-02-26T00:26:44;4.90;;;2.17;;
43606;SDS011;29197;44.788;10.366;2024-02-26T00:29:32;2.23;;;1.70;;
43606;SDS011;29197;44.788;10.366;2024-02-26T00:32:21;5.07;;;1.83;;
43606;SDS011;29197;44.788;10.366;2024-02-26T00:35:10;2.45;;;1.83;;
43606;SDS011;29197;44.788;10.366;2024-02-26T00:37:59;2.07;;;1.50;;
43606;SDS011;29197;44.788;10.366;2024-02-26T00:40:50;1.93;;;1.20;;
43606;SDS011;29197;44.788;10.366;2024-02-26T00:43:40;2.30;;;1.60;;
43606;SDS011;29197;44.788;10.366;2024-02-26T00:46:29;1.90;;;1.50;;
43606;SDS011;29197;44.788;10.366;2024-02-26T00:49:18;2.20;;;1.50;;
43606;SDS011;29197;44.788;10.366;2024-02-26T00:55:11;4.10;;;1.47;;
43606;SDS011;29197;44.788;10.366;2024-02-26T00:58:00;2.53;;;1.70;;
43606;SDS011;29197;44.788;10.366;2024-02-26T01:00:50;2.15;;;1.67;;
43606;SDS011;29197;44.788;10.366;2024-02-26T01:03:39;2.58;;;1.48;;
43606;SDS011;29197;44.788;10.366;2024-02-26T01:06:28;2.43;;;1.57;;
43606;SDS011;29197;44.788;10.366;2024-02-26T01:09:17;3.83;;;2.47;;
43606;SDS011;29197;44.788;10.366;2024-02-26T01:12:06;2.45;;;1.77;;
43606;SDS011;29197;44.788;10.366;2024-02-26T01:14:55;3.00;;;2.00;;
43606;SDS011;29197;44.788;10.366;2024-02-26T01:17:46;2.30;;;1.40;;
43606;SDS011;29197;44.788;10.366;2024-02-26T01:20:35;2.17;;;1.60;;
43606;SDS011;29197;44.788;10.366;2024-02-26T01:23:24;2.28;;;1.77;;
43606;SDS011;29197;44.788;10.366;2024-02-26T01:26:13;2.33;;;1.80;;
43606;SDS011;29197;44.788;10.366;2024-02-26T01:29:02;2.60;;;1.57;;
43606;SDS011;29197;44.788;10.366;2024-02-26T01:31:51;2.13;;;1.67;;
43606;SDS011;29197;44.788;10.366;2024-02-26T01:34:41;2.27;;;1.87;;
43606;SDS011;29197;44.788;10.366;2024-02-26T01:37:30;2.60;;;2.03;;
43606;SDS011;29197;44.788;10.366;2024-02-26T01:40:19;2.20;;;1.63;;
43606;SDS011;29197;44.788;10.366;2024-02-26T01:43:08;2.33;;;1.73;;
43606;SDS011;29197;44.788;10.366;2024-02-26T01:45:57;2.30;;;1.80;;
43606;SDS011;29197;44.788;10.366;2024-02-26T01:48:46;2.20;;;1.97;;
43606;SDS011;29197;44.788;10.366;2024-02-26T01:51:38;2.00;;;1.57;;
43606;SDS011;29197;44.788;10.366;2024-02-26T01:54:28;2.10;;;1.90;;
43606;SDS011;29197;44.788;10.366;2024-02-26T01:57:18;3.70;;;1.90;;
43606;SDS011;29197;44.788;10.366;2024-02-26T02:00:07;2.77;;;1.80;;
43606;SDS011;29197;44.788;10.366;2024-02-26T02:02:57;3.47;;;1.60;;
43606;SDS011;29197;44.788;10.366;2024-02-26T02:05:46;4.23;;;2.13;;
43606;SDS011;29197;44.788;10.366;2024-02-26T02:08:36;3.00;;;1.92;;
43606;SDS011;29197;44.788;10.366;2024-02-26T02:11:26;4.23;;;1.97;;
43606;SDS011;29197;44.788;10.366;2024-02-26T02:14:15;5.43;;;2.20;;
43606;SDS011;29197;44.788;10.366;2024-02-26T02:17:04;2.20;;;2.00;;
43606;SDS011;29197;44.788;10.366;2024-02-26T02:19:53;2.67;;;2.20;;
43606;SDS011;29197;44.788;10.366;2024-02-26T02:22:43;2.30;;;1.63;;
43606;SDS011;29197;44.788;10.366;2024-02-26T02:25:32;2.87;;;2.33;;
43606;SDS011;29197;44.788;10.366;2024-02-26T02:28:21;2.83;;;1.93;;
43606;SDS011;29197;44.788;10.366;2024-02-26T02:31:10;3.03;;;1.80;;
43606;SDS011;29197;44.788;10.366;2024-02-26T02:33:59;3.03;;;2.10;;
43606;SDS011;29197;44.788;10.366;2024-02-26T02:36:48;2.43;;;1.90;;
43606;SDS011;29197;44.788;10.366;2024-02-26T02:39:39;3.73;;;1.97;;
43606;SDS011;29197;44.788;10.366;2024-02-26T02:42:30;2.23;;;1.87;;
43606;SDS011;29197;44.788;10.366;2024-02-26T02:45:19;2.93;;;1.77;;
43606;SDS011;29197;44.788;10.366;2024-02-26T02:48:08;2.47;;;1.63;;
43606;SDS011;29197;44.788;10.366;2024-02-26T02:50:57;5.70;;;1.90;;
43606;SDS011;29197;44.788;10.366;2024-02-26T02:53:46;2.40;;;1.83;;
43606;SDS011;29197;44.788;10.366;2024-02-26T02:56:36;1.80;;;1.60;;
43606;SDS011;29197;44.788;10.366;2024-02-26T02:59:25;2.13;;;1.73;;
43606;SDS011;29197;44.788;10.366;2024-02-26T03:02:14;3.67;;;2.00;;
43606;SDS011;29197;44.788;10.366;2024-02-26T03:05:03;5.17;;;2.27;;
43606;SDS011;29197;44.788;10.366;2024-02-26T03:07:52;3.37;;;2.07;;
43606;SDS011;29197;44.788;10.366;2024-02-26T03:10:41;1.90;;;1.70;;
43606;SDS011;29197;44.788;10.366;2024-02-26T03:13:31;2.50;;;1.83;;
43606;SDS011;29197;44.788;10.366;2024-02-26T03:16:20;3.87;;;2.20;;
43606;SDS011;29197;44.788;10.366;2024-02-26T03:19:09;3.63;;;2.43;;
43606;SDS011;29197;44.788;10.366;2024-02-26T03:21:58;3.77;;;2.50;;
43606;SDS011;29197;44.788;10.366;2024-02-26T03:24:47;4.67;;;2.90;;
43606;SDS011;29197;44.788;10.366;2024-02-26T03:27:36;6.10;;;3.80;;
43606;SDS011;29197;44.788;10.366;2024-02-26T03:30:27;7.73;;;4.50;;
43606;SDS011;29197;44.788;10.366;2024-02-26T03:33:16;7.20;;;4.67;;
43606;SDS011;29197;44.788;10.366;2024-02-26T03:36:05;6.93;;;4.67;;
43606;SDS011;29197;44.788;10.366;2024-02-26T03:38:54;7.70;;;4.87;;
43606;SDS011;29197;44.788;10.366;2024-02-26T03:41:43;7.70;;;4.50;;
43606;SDS011;29197;44.788;10.366;2024-02-26T03:44:32;7.37;;;4.83;;
43606;SDS011;29197;44.788;10.366;2024-02-26T03:47:22;8.87;;;4.40;;
43606;SDS011;29197;44.788;10.366;2024-02-26T03:50:11;10.07;;;5.97;;
43606;SDS011;29197;44.788;10.366;2024-02-26T03:53:00;6.53;;;4.80;;
43606;SDS011;29197;44.788;10.366;2024-02-26T03:55:48;9.07;;;5.30;;
43606;SDS011;29197;44.788;10.366;2024-02-26T03:58:38;7.63;;;5.13;;
43606;SDS011;29197;44.788;10.366;2024-02-26T04:01:27;9.67;;;5.47;;
43606;SDS011;29197;44.788;10.366;2024-02-26T04:04:17;12.20;;;7.57;;
43606;SDS011;29197;44.788;10.366;2024-02-26T04:09:55;9.07;;;6.57;;
43606;SDS011;29197;44.788;10.366;2024-02-26T04:12:44;10.30;;;6.43;;
43606;SDS011;29197;44.788;10.366;2024-02-26T04:15:33;8.13;;;6.23;;
43606;SDS011;29197;44.788;10.366;2024-02-26T04:18:21;7.07;;;5.73;;
43606;SDS011;29197;44.788;10.366;2024-02-26T04:21:12;11.80;;;5.90;;
43606;SDS011;29197;44.788;10.366;2024-02-26T04:24:00;8.10;;;5.97;;
43606;SDS011;29197;44.788;10.366;2024-02-26T04:26:49;10.53;;;6.67;;
43606;SDS011;29197;44.788;10.366;2024-02-26T04:29:38;8.57;;;6.13;;
43606;SDS011;29197;44.788;10.366;2024-02-26T04:32:26;8.80;;;6.30;;
43606;SDS011;29197;44.788;10.366;2024-02-26T04:35:15;11.27;;;6.10;;
43606;SDS011;29197;44.788;10.366;2024-02-26T04:38:06;8.87;;;6.20;;
43606;SDS011;29197;44.788;10.366;2024-02-26T04:40:55;9.13;;;5.80;;
43606;SDS011;29197;44.788;10.366;2024-02-26T04:43:43;8.27;;;5.77;;
43606;SDS011;29197;44.788;10.366;2024-02-26T04:46:32;11.07;;;6.03;;
43606;SDS011;29197;44.788;10.366;2024-02-26T04:49:21;7.80;;;5.80;;
43606;SDS011;29197;44.788;10.366;2024-02-26T04:52:11;11.20;;;6.10;;
43606;SDS011;29197;44.788;10.366;2024-02-26T04:55:01;8.03;;;6.33;;
43606;SDS011;29197;44.788;10.366;2024-02-26T04:57:50;8.60;;;6.27;;
43606;SDS011;29197;44.788;10.366;2024-02-26T05:00:39;11.27;;;7.07;;
43606;SDS011;29197;44.788;10.366;2024-02-26T05:03:28;10.73;;;7.17;;
43606;SDS011;29197;44.788;10.366;2024-02-26T05:06:20;13.03;;;7.27;;
43606;SDS011;29197;44.788;10.366;2024-02-26T05:09:09;9.83;;;7.27;;
43606;SDS011;29197;44.788;10.366;2024-02-26T05:12:00;9.90;;;7.13;;
43606;SDS011;29197;44.788;10.366;2024-02-26T05:14:50;8.97;;;6.83;;
43606;SDS011;29197;44.788;10.366;2024-02-26T05:17:39;11.60;;;6.60;;
43606;SDS011;29197;44.788;10.366;2024-02-26T05:20:28;12.27;;;8.20;;
43606;SDS011;29197;44.788;10.366;2024-02-26T05:23:18;15.10;;;8.23;;
43606;SDS011;29197;44.788;10.366;2024-02-26T05:26:09;10.67;;;7.70;;
43606;SDS011;29197;44.788;10.366;2024-02-26T05:28:59;11.73;;;8.93;;
43606;SDS011;29197;44.788;10.366;2024-02-26T05:31:48;13.97;;;9.80;;
43606;SDS011;29197;44.788;10.366;2024-02-26T05:34:37;14.03;;;9.40;;
43606;SDS011;29197;44.788;10.366;2024-02-26T05:37:28;12.77;;;9.20;;
43606;SDS011;29197;44.788;10.366;2024-02-26T05:40:17;15.53;;;10.47;;
43606;SDS011;29197;44.788;10.366;2024-02-26T05:43:06;15.90;;;10.20;;
43606;SDS011;29197;44.788;10.366;2024-02-26T05:45:56;16.03;;;10.80;;
43606;SDS011;29197;44.788;10.366;2024-02-26T05:48:46;17.63;;;10.57;;
43606;SDS011;29197;44.788;10.366;2024-02-26T05:51:35;16.00;;;10.80;;
43606;SDS011;29197;44.788;10.366;2024-02-26T05:54:24;14.53;;;9.77;;
43606;SDS011;29197;44.788;10.366;2024-02-26T05:57:13;14.27;;;9.90;;
43606;SDS011;29197;44.788;10.366;2024-02-26T06:00:02;14.53;;;10.43;;
43606;SDS011;29197;44.788;10.366;2024-02-26T06:02:53;14.47;;;10.47;;
43606;SDS011;29197;44.788;10.366;2024-02-26T06:05:42;16.23;;;10.13;;
43606;SDS011;29197;44.788;10.366;2024-02-26T06:08:32;19.07;;;11.53;;
43606;SDS011;29197;44.788;10.366;2024-02-26T06:11:23;15.30;;;11.60;;
43606;SDS011;29197;44.788;10.366;2024-02-26T06:14:12;15.07;;;11.50;;
43606;SDS011;29197;44.788;10.366;2024-02-26T06:17:04;18.60;;;11.80;;
43606;SDS011;29197;44.788;10.366;2024-02-26T06:19:55;17.27;;;11.83;;
43606;SDS011;29197;44.788;10.366;2024-02-26T06:22:46;15.73;;;11.33;;
43606;SDS011;29197;44.788;10.366;2024-02-26T06:25:35;17.93;;;12.17;;
43606;SDS011;29197;44.788;10.366;2024-02-26T06:28:24;15.90;;;10.87;;
43606;SDS011;29197;44.788;10.366;2024-02-26T06:31:13;14.90;;;11.00;;
43606;SDS011;29197;44.788;10.366;2024-02-26T06:34:02;14.47;;;11.00;;
43606;SDS011;29197;44.788;10.366;2024-02-26T06:36:52;19.63;;;12.50;;
43606;SDS011;29197;44.788;10.366;2024-02-26T06:39:41;18.73;;;12.10;;
43606;SDS011;29197;44.788;10.366;2024-02-26T06:42:30;16.30;;;12.33;;
43606;SDS011;29197;44.788;10.366;2024-02-26T06:45:19;16.20;;;11.60;;
43606;SDS011;29197;44.788;10.366;2024-02-26T06:48:08;20.07;;;12.17;;
43606;SDS011;29197;44.788;10.366;2024-02-26T06:50:57;18.27;;;12.73;;
43606;SDS011;29197;44.788;10.366;2024-02-26T06:53:47;16.53;;;11.77;;
43606;SDS011;29197;44.788;10.366;2024-02-26T06:56:36;16.27;;;12.47;;
43606;SDS011;29197;44.788;10.366;2024-02-26T06:59:25;17.33;;;12.63;;
43606;SDS011;29197;44.788;10.366;2024-02-26T07:02:14;17.03;;;12.50;;
43606;SDS011;29197;44.788;10.366;2024-02-26T07:05:04;17.73;;;12.53;;
43606;SDS011;29197;44.788;10.366;2024-02-26T07:07:53;17.17;;;12.93;;
43606;SDS011;29197;44.788;10.366;2024-02-26T07:10:43;20.67;;;13.53;;
43606;SDS011;29197;44.788;10.366;2024-02-26T07:13:32;16.87;;;12.87;;
43606;SDS011;29197;44.788;10.366;2024-02-26T07:16:21;20.13;;;13.63;;
43606;SDS011;29197;44.788;10.366;2024-02-26T07:19:12;19.67;;;14.67;;
43606;SDS011;29197;44.788;10.366;2024-02-26T07:22:01;17.83;;;14.33;;
43606;SDS011;29197;44.788;10.366;2024-02-26T07:24:50;21.67;;;14.00;;
43606;SDS011;29197;44.788;10.366;2024-02-26T07:27:40;19.57;;;14.57;;
43606;SDS011;29197;44.788;10.366;2024-02-26T07:30:29;18.10;;;13.40;;
43606;SDS011;29197;44.788;10.366;2024-02-26T07:33:18;20.80;;;14.93;;
43606;SDS011;29197;44.788;10.366;2024-02-26T07:36:07;20.93;;;14.47;;
43606;SDS011;29197;44.788;10.366;2024-02-26T07:38:56;24.97;;;15.13;;
43606;SDS011;29197;44.788;10.366;2024-02-26T07:41:45;20.17;;;14.53;;
43606;SDS011;29197;44.788;10.366;2024-02-26T07:44:38;23.40;;;13.83;;
43606;SDS011;29197;44.788;10.366;2024-02-26T07:47:29;19.83;;;14.17;;
43606;SDS011;29197;44.788;10.366;2024-02-26T07:50:21;21.97;;;15.17;;
43606;SDS011;29197;44.788;10.366;2024-02-26T07:53:10;20.93;;;14.60;;
43606;SDS011;29197;44.788;10.366;2024-02-26T07:55:59;21.87;;;14.10;;
43606;SDS011;29197;44.788;10.366;2024-02-26T07:58:48;24.90;;;15.17;;
43606;SDS011;29197;44.788;10.366;2024-02-26T08:01:38;20.10;;;14.83;;
43606;SDS011;29197;44.788;10.366;2024-02-26T08:04:29;19.57;;;14.53;;
43606;SDS011;29197;44.788;10.366;2024-02-26T08:07:18;21.40;;;16.20;;
43606;SDS011;29197;44.788;10.366;2024-02-26T08:10:08;22.80;;;16.43;;
43606;SDS011;29197;44.788;10.366;2024-02-26T08:12:57;18.97;;;13.93;;
43606;SDS011;29197;44.788;10.366;2024-02-26T08:15:53;19.87;;;12.97;;
43606;SDS011;29197;44.788;10.366;2024-02-26T08:18:44;16.80;;;11.67;;
43606;SDS011;29197;44.788;10.366;2024-02-26T08:21:33;17.97;;;12.37;;
43606;SDS011;29197;44.788;10.366;2024-02-26T08:24:23;16.70;;;11.73;;
43606;SDS011;29197;44.788;10.366;2024-02-26T08:27:12;11.40;;;9.00;;
43606;SDS011;29197;44.788;10.366;2024-02-26T08:30:01;16.97;;;9.90;;
43606;SDS011;29197;44.788;10.366;2024-02-26T08:32:50;12.57;;;9.50;;
43606;SDS011;29197;44.788;10.366;2024-02-26T08:35:41;11.83;;;9.50;;
43606;SDS011;29197;44.788;10.366;2024-02-26T08:38:29;13.77;;;10.70;;
43606;SDS011;29197;44.788;10.366;2024-02-26T08:41:18;14.30;;;9.87;;
43606;SDS011;29197;44.788;10.366;2024-02-26T08:44:07;13.37;;;9.50;;
43606;SDS011;29197;44.788;10.366;2024-02-26T08:46:56;11.93;;;8.60;;
43606;SDS011;29197;44.788;10.366;2024-02-26T08:49:45;11.70;;;8.87;;
43606;SDS011;29197;44.788;10.366;2024-02-26T08:52:36;14.27;;;9.80;;
43606;SDS011;29197;44.788;10.366;2024-02-26T08:55:24;12.07;;;8.60;;
43606;SDS011;29197;44.788;10.366;2024-02-26T08:58:13;12.03;;;7.77;;
43606;SDS011;29197;44.788;10.366;2024-02-26T09:01:02;13.60;;;9.83;;
43606;SDS011;29197;44.788;10.366;2024-02-26T09:03:51;13.93;;;9.37;;
43606;SDS011;29197;44.788;10.366;2024-02-26T09:06:40;12.83;;;9.07;;
43606;SDS011;29197;44.788;10.366;2024-02-26T09:09:31;11.60;;;7.87;;
43606;SDS011;29197;44.788;10.366;2024-02-26T09:12:20;12.23;;;8.37;;
43606;SDS011;29197;44.788;10.366;2024-02-26T09:15:09;11.43;;;8.73;;
43606;SDS011;29197;44.788;10.366;2024-02-26T09:17:58;14.13;;;9.23;;
43606;SDS011;29197;44.788;10.366;2024-02-26T09:20:47;10.80;;;8.07;;
43606;SDS011;29197;44.788;10.366;2024-02-26T09:23:38;11.27;;;9.03;;
43606;SDS011;29197;44.788;10.366;2024-02-26T09:26:28;11.20;;;9.07;;
43606;SDS011;29197;44.788;10.366;2024-02-26T09:29:17;12.00;;;9.93;;
43606;SDS011;29197;44.788;10.366;2024-02-26T09:32:06;13.17;;;8.53;;
43606;SDS011;29197;44.788;10.366;2024-02-26T09:34:55;12.63;;;8.27;;
43606;SDS011;29197;44.788;10.366;2024-02-26T09:37:44;14.07;;;9.10;;
43606;SDS011;29197;44.788;10.366;2024-02-26T09:40:33;11.90;;;8.63;;
43606;SDS011;29197;44.788;10.366;2024-02-26T09:43:23;12.90;;;9.27;;
43606;SDS011;29197;44.788;10.366;2024-02-26T09:46:12;10.13;;;8.33;;
43606;SDS011;29197;44.788;10.366;2024-02-26T09:49:02;10.23;;;7.50;;
43606;SDS011;29197;44.788;10.366;2024-02-26T09:51:52;12.00;;;8.63;;
43606;SDS011;29197;44.788;10.366;2024-02-26T09:54:42;11.63;;;7.70;;
43606;SDS011;29197;44.788;10.366;2024-02-26T09:57:35;11.53;;;8.07;;
43606;SDS011;29197;44.788;10.366;2024-02-26T10:00:26;17.37;;;10.00;;
43606;SDS011;29197;44.788;10.366;2024-02-26T10:03:20;13.60;;;9.60;;
43606;SDS011;29197;44.788;10.366;2024-02-26T10:06:13;13.37;;;8.73;;
43606;SDS011;29197;44.788;10.366;2024-02-26T10:09:02;13.07;;;8.43;;
43606;SDS011;29197;44.788;10.366;2024-02-26T10:11:53;10.03;;;7.60;;
43606;SDS011;29197;44.788;10.366;2024-02-26T10:14:43;11.20;;;7.80;;
43606;SDS011;29197;44.788;10.366;2024-02-26T10:17:33;13.23;;;8.63;;
43606;SDS011;29197;44.788;10.366;2024-02-26T10:20:23;12.10;;;8.17;;
43606;SDS011;29197;44.788;10.366;2024-02-26T10:23:13;13.17;;;9.07;;
43606;SDS011;29197;44.788;10.366;2024-02-26T10:26:01;12.07;;;8.60;;
43606;SDS011;29197;44.788;10.366;2024-02-26T10:28:50;14.00;;;9.17;;
43606;SDS011;29197;44.788;10.366;2024-02-26T10:31:41;13.73;;;8.87;;
43606;SDS011;29197;44.788;10.366;2024-02-26T10:34:31;10.55;;;7.90;;
43606;SDS011;29197;44.788;10.366;2024-02-26T10:37:20;15.40;;;8.97;;
43606;SDS011;29197;44.788;10.366;2024-02-26T10:40:15;10.90;;;8.23;;
43606;SDS011;29197;44.788;10.366;2024-02-26T10:43:04;12.60;;;8.43;;
43606;SDS011;29197;44.788;10.366;2024-02-26T10:45:54;12.57;;;8.27;;
43606;SDS011;29197;44.788;10.366;2024-02-26T10:48:48;10.90;;;8.43;;
43606;SDS011;29197;44.788;10.366;2024-02-26T10:51:39;13.57;;;8.27;;
43606;SDS011;29197;44.788;10.366;2024-02-26T10:54:32;9.60;;;7.97;;
43606;SDS011;29197;44.788;10.366;2024-02-26T10:57:23;11.40;;;8.20;;
43606;SDS011;29197;44.788;10.366;2024-02-26T11:00:14;10.70;;;7.13;;
43606;SDS011;29197;44.788;10.366;2024-02-26T11:03:04;11.97;;;8.07;;
43606;SDS011;29197;44.788;10.366;2024-02-26T11:05:54;9.23;;;6.65;;
43606;SDS011;29197;44.788;10.366;2024-02-26T11:08:46;10.80;;;7.13;;
43606;SDS011;29197;44.788;10.366;2024-02-26T11:11:36;11.80;;;7.03;;
43606;SDS011;29197;44.788;10.366;2024-02-26T11:14:27;15.83;;;7.43;;
43606;SDS011;29197;44.788;10.366;2024-02-26T11:17:18;10.23;;;7.17;;
43606;SDS011;29197;44.788;10.366;2024-02-26T11:20:09;11.87;;;6.87;;
43606;SDS011;29197;44.788;10.366;2024-02-26T11:23:00;10.23;;;6.87;;
43606;SDS011;29197;44.788;10.366;2024-02-26T11:25:50;12.43;;;7.33;;
43606;SDS011;29197;44.788;10.366;2024-02-26T11:28:41;9.80;;;6.40;;
43606;SDS011;29197;44.788;10.366;2024-02-26T11:31:31;11.07;;;7.43;;
43606;SDS011;29197;44.788;10.366;2024-02-26T11:34:23;10.90;;;8.03;;
43606;SDS011;29197;44.788;10.366;2024-02-26T11:37:13;10.07;;;7.27;;
43606;SDS011;29197;44.788;10.366;2024-02-26T11:40:03;9.73;;;6.83;;
43606;SDS011;29197;44.788;10.366;2024-02-26T11:42:59;9.93;;;6.60;;
43606;SDS011;29197;44.788;10.366;2024-02-26T11:45:49;12.07;;;8.07;;
43606;SDS011;29197;44.788;10.366;2024-02-26T11:48:39;12.50;;;7.82;;
43606;SDS011;29197;44.788;10.366;2024-02-26T11:51:32;9.60;;;7.40;;
43606;SDS011;29197;44.788;10.366;2024-02-26T11:54:37;9.52;;;6.55;;
43606;SDS011;29197;44.788;10.366;2024-02-26T11:57:28;15.23;;;7.75;;
43606;SDS011;29197;44.788;10.366;2024-02-26T12:00:22;12.30;;;8.02;;
43606;SDS011;29197;44.788;10.366;2024-02-26T12:03:11;12.07;;;8.35;;
43606;SDS011;29197;44.788;10.366;2024-02-26T12:06:00;67.75;;;43.63;;
43606;SDS011;29197;44.788;10.366;2024-02-26T12:08:49;79.93;;;43.55;;
43606;SDS011;29197;44.788;10.366;2024-02-26T12:11:38;40.28;;;22.15;;
43606;SDS011;29197;44.788;10.366;2024-02-26T12:14:27;21.02;;;12.82;;
43606;SDS011;29197;44.788;10.366;2024-02-26T12:17:20;13.82;;;9.93;;
43606;SDS011;29197;44.788;10.366;2024-02-26T12:20:11;9.05;;;6.53;;
43606;SDS011;29197;44.788;10.366;2024-02-26T12:23:02;9.30;;;5.60;;
43606;SDS011;29197;44.788;10.366;2024-02-26T12:25:51;8.77;;;5.75;;
43606;SDS011;29197;44.788;10.366;2024-02-26T12:28:40;7.20;;;5.50;;
43606;SDS011;29197;44.788;10.366;2024-02-26T12:31:29;7.10;;;5.45;;
43606;SDS011;29197;44.788;10.366;2024-02-26T12:34:20;9.77;;;5.82;;
43606;SDS011;29197;44.788;10.366;2024-02-26T12:37:09;8.20;;;4.65;;
43606;SDS011;29197;44.788;10.366;2024-02-26T12:39:58;6.05;;;4.05;;
43606;SDS011;29197;44.788;10.366;2024-02-26T12:42:46;6.30;;;3.78;;
43606;SDS011;29197;44.788;10.366;2024-02-26T12:45:35;3.05;;;2.33;;
43606;SDS011;29197;44.788;10.366;2024-02-26T12:48:28;3.83;;;2.08;;
43606;SDS011;29197;44.788;10.366;2024-02-26T12:51:18;1.92;;;1.40;;
43606;SDS011;29197;44.788;10.366;2024-02-26T12:54:07;1.45;;;1.23;;
43606;SDS011;29197;44.788;10.366;2024-02-26T12:56:57;3.22;;;1.10;;
43606;SDS011;29197;44.788;10.366;2024-02-26T12:59:47;2.35;;;1.40;;
43606;SDS011;29197;44.788;10.366;2024-02-26T13:02:36;4.72;;;1.30;;
43606;SDS011;29197;44.788;10.366;2024-02-26T13:05:26;2.03;;;1.30;;
43606;SDS011;29197;44.788;10.366;2024-02-26T13:08:18;1.95;;;1.60;;
43606;SDS011;29197;44.788;10.366;2024-02-26T13:11:07;1.40;;;1.30;;
43606;SDS011;29197;44.788;10.366;2024-02-26T13:13:56;2.00;;;1.87;;
43606;SDS011;29197;44.788;10.366;2024-02-26T13:16:45;2.00;;;1.80;;
43606;SDS011;29197;44.788;10.366;2024-02-26T13:19:51;3.42;;;2.50;;
43606;SDS011;29197;44.788;10.366;2024-02-26T13:22:40;4.33;;;2.10;;
43606;SDS011;29197;44.788;10.366;2024-02-26T13:25:31;6.90;;;3.17;;
43606;SDS011;29197;44.788;10.366;2024-02-26T13:28:20;2.67;;;2.45;;
43606;SDS011;29197;44.788;10.366;2024-02-26T13:31:11;3.55;;;2.25;;
43606;SDS011;29197;44.788;10.366;2024-02-26T13:34:00;4.47;;;2.50;;
43606;SDS011;29197;44.788;10.366;2024-02-26T13:36:49;4.40;;;2.80;;
43606;SDS011;29197;44.788;10.366;2024-02-26T13:39:37;4.47;;;3.10;;
43606;SDS011;29197;44.788;10.366;2024-02-26T13:42:29;5.32;;;3.60;;
43606;SDS011;29197;44.788;10.366;2024-02-26T13:45:18;6.55;;;4.20;;
43606;SDS011;29197;44.788;10.366;2024-02-26T13:48:07;5.83;;;4.60;;
43606;SDS011;29197;44.788;10.366;2024-02-26T13:50:58;5.55;;;4.22;;
43606;SDS011;29197;44.788;10.366;2024-02-26T13:53:49;4.03;;;3.63;;
43606;SDS011;29197;44.788;10.366;2024-02-26T13:56:38;5.10;;;3.55;;
43606;SDS011;29197;44.788;10.366;2024-02-26T13:59:28;6.75;;;4.30;;
43606;SDS011;29197;44.788;10.366;2024-02-26T14:02:21;8.25;;;4.63;;
43606;SDS011;29197;44.788;10.366;2024-02-26T14:05:09;5.75;;;4.43;;
43606;SDS011;29197;44.788;10.366;2024-02-26T14:07:58;6.20;;;3.75;;
43606;SDS011;29197;44.788;10.366;2024-02-26T14:10:47;5.90;;;3.05;;
43606;SDS011;29197;44.788;10.366;2024-02-26T14:13:36;3.67;;;3.00;;
43606;SDS011;29197;44.788;10.366;2024-02-26T14:16:28;4.20;;;3.07;;
43606;SDS011;29197;44.788;10.366;2024-02-26T14:19:18;3.50;;;2.77;;
43606;SDS011;29197;44.788;10.366;2024-02-26T14:22:07;3.58;;;2.35;;
43606;SDS011;29197;44.788;10.366;2024-02-26T14:24:56;3.50;;;2.30;;
43606;SDS011;29197;44.788;10.366;2024-02-26T14:27:44;4.27;;;2.80;;
43606;SDS011;29197;44.788;10.366;2024-02-26T14:30:33;6.38;;;3.70;;
43606;SDS011;29197;44.788;10.366;2024-02-26T14:33:23;4.87;;;2.53;;
43606;SDS011;29197;44.788;10.366;2024-02-26T14:36:12;5.65;;;2.50;;
43606;SDS011;29197;44.788;10.366;2024-02-26T14:39:01;3.03;;;2.50;;
43606;SDS011;29197;44.788;10.366;2024-02-26T14:41:49;3.43;;;2.87;;
43606;SDS011;29197;44.788;10.366;2024-02-26T14:44:42;4.20;;;2.63;;
43606;SDS011;29197;44.788;10.366;2024-02-26T14:47:33;4.65;;;2.92;;
43606;SDS011;29197;44.788;10.366;2024-02-26T14:50:23;5.38;;;2.88;;
43606;SDS011;29197;44.788;10.366;2024-02-26T14:53:12;3.43;;;2.20;;
43606;SDS011;29197;44.788;10.366;2024-02-26T14:56:00;7.57;;;2.20;;
43606;SDS011;29197;44.788;10.366;2024-02-26T14:58:49;3.30;;;2.60;;
43606;SDS011;29197;44.788;10.366;2024-02-26T15:01:38;11.77;;;4.43;;
43606;SDS011;29197;44.788;10.366;2024-02-26T15:04:29;3.53;;;2.30;;
43606;SDS011;29197;44.788;10.366;2024-02-26T15:07:19;3.80;;;1.70;;
43606;SDS011;29197;44.788;10.366;2024-02-26T15:10:08;5.75;;;1.65;;
43606;SDS011;29197;44.788;10.366;2024-02-26T15:12:57;2.03;;;1.30;;
43606;SDS011;29197;44.788;10.366;2024-02-26T15:15:45;3.40;;;1.75;;
43606;SDS011;29197;44.788;10.366;2024-02-26T15:18:34;3.23;;;1.20;;
43606;SDS011;29197;44.788;10.366;2024-02-26T15:21:26;2.47;;;1.25;;
43606;SDS011;29197;44.788;10.366;2024-02-26T15:24:16;2.70;;;1.00;;
43606;SDS011;29197;44.788;10.366;2024-02-26T15:27:05;1.88;;;0.70;;
43606;SDS011;29197;44.788;10.366;2024-02-26T15:29:53;1.33;;;1.00;;
43606;SDS011;29197;44.788;10.366;2024-02-26T15:32:45;1.33;;;0.90;;
43606;SDS011;29197;44.788;10.366;2024-02-26T15:35:34;2.53;;;0.57;;
43606;SDS011;29197;44.788;10.366;2024-02-26T15:38:24;1.23;;;0.80;;
43606;SDS011;29197;44.788;10.366;2024-02-26T15:41:15;1.47;;;0.93;;
43606;SDS011;29197;44.788;10.366;2024-02-26T15:44:04;2.42;;;0.70;;
43606;SDS011;29197;44.788;10.366;2024-02-26T15:46:54;4.30;;;2.30;;
43606;SDS011;29197;44.788;10.366;2024-02-26T15:49:43;0.75;;;0.60;;
43606;SDS011;29197;44.788;10.366;2024-02-26T15:52:32;1.47;;;0.70;;
43606;SDS011;29197;44.788;10.366;2024-02-26T15:55:20;4.85;;;2.00;;
43606;SDS011;29197;44.788;10.366;2024-02-26T15:58:10;2.58;;;2.05;;
43606;SDS011;29197;44.788;10.366;2024-02-26T16:00:59;1.75;;;1.38;;
43606;SDS011;29197;44.788;10.366;2024-02-26T16:04:01;4.80;;;2.45;;
43606;SDS011;29197;44.788;10.366;2024-02-26T16:06:51;6.10;;;3.73;;
43606;SDS011;29197;44.788;10.366;2024-02-26T16:09:42;5.20;;;2.58;;
43606;SDS011;29197;44.788;10.366;2024-02-26T16:12:33;3.03;;;1.50;;
43606;SDS011;29197;44.788;10.366;2024-02-26T16:15:27;6.43;;;2.20;;
43606;SDS011;29197;44.788;10.366;2024-02-26T16:18:18;4.53;;;2.63;;
43606;SDS011;29197;44.788;10.366;2024-02-26T16:21:07;4.45;;;2.38;;
43606;SDS011;29197;44.788;10.366;2024-02-26T16:23:56;5.53;;;3.30;;
43606;SDS011;29197;44.788;10.366;2024-02-26T16:26:45;4.47;;;2.23;;
43606;SDS011;29197;44.788;10.366;2024-02-26T16:29:35;21.50;;;10.93;;
43606;SDS011;29197;44.788;10.366;2024-02-26T16:32:25;26.43;;;13.37;;
43606;SDS011;29197;44.788;10.366;2024-02-26T16:35:14;10.60;;;6.93;;
43606;SDS011;29197;44.788;10.366;2024-02-26T16:38:03;4.68;;;4.18;;
43606;SDS011;29197;44.788;10.366;2024-02-26T16:40:52;2.57;;;2.23;;
43606;SDS011;29197;44.788;10.366;2024-02-26T16:43:41;6.60;;;1.33;;